sensor_id;sensor_type;location;lat;lon;timestamp;P1;durP1;ratioP1;P2;durP2;ratioP2
419;SDS011;42600;54.408;13.016;2023-06-22T00:02:15;6.30;;;2.53;;
419;SDS011;42600;54.408;13.016;2023-06-22T00:04:41;11.80;;;3.37;;
419;SDS011;42600;54.408;13.016;2023-06-22T00:07:08;10.53;;;3.37;;
419;SDS011;42600;54.408;13.016;2023-06-22T00:09:34;3.70;;;1.80;;
419;SDS011;42600;54.408;13.016;2023-06-22T00:12:01;3.00;;;1.80;;
419;SDS011;42600;54.408;13.016;2023-06-22T00:14:28;8.87;;;3.80;;
419;SDS011;42600;54.408;13.016;2023-06-22T00:16:56;6.30;;;4.80;;
419;SDS011;42600;54.408;13.016;2023-06-22T00:19:24;5.97;;;2.50;;
419;SDS011;42600;54.408;13.016;2023-06-22T00:21:50;8.43;;;3.73;;
419;SDS011;42600;54.408;13.016;2023-06-22T00:24:18;7.20;;;2.90;;
419;SDS011;42600;54.408;13.016;2023-06-22T00:26:44;10.50;;;3.30;;
419;SDS011;42600;54.408;13.016;2023-06-22T00:29:11;10.60;;;5.33;;
419;SDS011;42600;54.408;13.016;2023-06-22T00:31:37;11.60;;;4.83;;
419;SDS011;42600;54.408;13.016;2023-06-22T00:34:05;19.17;;;5.30;;
419;SDS011;42600;54.408;13.016;2023-06-22T00:36:33;10.77;;;2.93;;
419;SDS011;42600;54.408;13.016;2023-06-22T00:39:00;6.67;;;3.00;;
419;SDS011;42600;54.408;13.016;2023-06-22T00:41:28;9.30;;;3.80;;
419;SDS011;42600;54.408;13.016;2023-06-22T00:43:54;6.57;;;3.47;;
419;SDS011;42600;54.408;13.016;2023-06-22T00:46:21;6.20;;;3.40;;
419;SDS011;42600;54.408;13.016;2023-06-22T00:48:48;12.07;;;3.30;;
419;SDS011;42600;54.408;13.016;2023-06-22T00:51:17;6.10;;;3.73;;
419;SDS011;42600;54.408;13.016;2023-06-22T00:53:49;7.77;;;4.00;;
419;SDS011;42600;54.408;13.016;2023-06-22T00:56:16;8.30;;;4.10;;
419;SDS011;42600;54.408;13.016;2023-06-22T00:58:49;9.20;;;3.07;;
419;SDS011;42600;54.408;13.016;2023-06-22T01:01:17;9.77;;;3.30;;
419;SDS011;42600;54.408;13.016;2023-06-22T01:03:48;12.83;;;4.27;;
419;SDS011;42600;54.408;13.016;2023-06-22T01:06:16;9.33;;;4.00;;
419;SDS011;42600;54.408;13.016;2023-06-22T01:08:53;7.27;;;4.30;;
419;SDS011;42600;54.408;13.016;2023-06-22T01:11:34;6.60;;;2.97;;
419;SDS011;42600;54.408;13.016;2023-06-22T01:14:05;5.70;;;3.30;;
419;SDS011;42600;54.408;13.016;2023-06-22T01:16:35;5.03;;;2.47;;
419;SDS011;42600;54.408;13.016;2023-06-22T01:19:09;14.23;;;4.70;;
419;SDS011;42600;54.408;13.016;2023-06-22T01:21:54;11.20;;;3.87;;
419;SDS011;42600;54.408;13.016;2023-06-22T01:24:22;9.43;;;4.67;;
419;SDS011;42600;54.408;13.016;2023-06-22T01:26:54;9.70;;;3.10;;
419;SDS011;42600;54.408;13.016;2023-06-22T01:29:27;12.33;;;4.60;;
419;SDS011;42600;54.408;13.016;2023-06-22T01:31:56;10.47;;;4.27;;
419;SDS011;42600;54.408;13.016;2023-06-22T01:34:25;5.87;;;3.17;;
419;SDS011;42600;54.408;13.016;2023-06-22T01:36:52;9.03;;;4.30;;
419;SDS011;42600;54.408;13.016;2023-06-22T01:39:19;5.90;;;2.97;;
419;SDS011;42600;54.408;13.016;2023-06-22T01:41:48;13.43;;;5.30;;
419;SDS011;42600;54.408;13.016;2023-06-22T01:44:15;11.77;;;5.10;;
419;SDS011;42600;54.408;13.016;2023-06-22T01:46:43;7.37;;;3.13;;
419;SDS011;42600;54.408;13.016;2023-06-22T01:49:10;8.97;;;4.87;;
419;SDS011;42600;54.408;13.016;2023-06-22T01:51:37;7.13;;;3.80;;
419;SDS011;42600;54.408;13.016;2023-06-22T01:54:05;10.93;;;3.70;;
419;SDS011;42600;54.408;13.016;2023-06-22T01:56:32;10.40;;;4.57;;
419;SDS011;42600;54.408;13.016;2023-06-22T01:59:01;6.40;;;4.10;;
419;SDS011;42600;54.408;13.016;2023-06-22T02:01:31;9.87;;;4.27;;
419;SDS011;42600;54.408;13.016;2023-06-22T02:04:08;10.03;;;5.43;;
419;SDS011;42600;54.408;13.016;2023-06-22T02:06:41;13.70;;;5.63;;
419;SDS011;42600;54.408;13.016;2023-06-22T02:09:12;16.20;;;4.83;;
419;SDS011;42600;54.408;13.016;2023-06-22T02:11:42;6.97;;;3.83;;
419;SDS011;42600;54.408;13.016;2023-06-22T02:14:11;7.63;;;4.30;;
419;SDS011;42600;54.408;13.016;2023-06-22T02:16:38;11.40;;;5.30;;
419;SDS011;42600;54.408;13.016;2023-06-22T02:19:07;8.93;;;4.17;;
419;SDS011;42600;54.408;13.016;2023-06-22T02:21:34;12.00;;;4.57;;
419;SDS011;42600;54.408;13.016;2023-06-22T02:24:00;6.03;;;3.83;;
419;SDS011;42600;54.408;13.016;2023-06-22T02:26:27;13.33;;;3.90;;
419;SDS011;42600;54.408;13.016;2023-06-22T02:28:54;10.87;;;3.27;;
419;SDS011;42600;54.408;13.016;2023-06-22T02:31:20;6.70;;;3.57;;
419;SDS011;42600;54.408;13.016;2023-06-22T02:33:47;4.70;;;2.10;;
419;SDS011;42600;54.408;13.016;2023-06-22T02:36:16;6.40;;;2.83;;
419;SDS011;42600;54.408;13.016;2023-06-22T02:38:46;9.67;;;4.30;;
419;SDS011;42600;54.408;13.016;2023-06-22T02:41:14;11.50;;;4.10;;
419;SDS011;42600;54.408;13.016;2023-06-22T02:43:43;11.93;;;3.93;;
419;SDS011;42600;54.408;13.016;2023-06-22T02:46:10;7.57;;;2.40;;
419;SDS011;42600;54.408;13.016;2023-06-22T02:48:38;7.30;;;2.00;;
419;SDS011;42600;54.408;13.016;2023-06-22T02:51:04;5.20;;;2.73;;
419;SDS011;42600;54.408;13.016;2023-06-22T02:53:32;7.17;;;3.10;;
419;SDS011;42600;54.408;13.016;2023-06-22T02:56:00;5.73;;;3.40;;
419;SDS011;42600;54.408;13.016;2023-06-22T02:58:28;5.97;;;2.87;;
419;SDS011;42600;54.408;13.016;2023-06-22T03:00:54;4.90;;;2.63;;
419;SDS011;42600;54.408;13.016;2023-06-22T03:03:21;7.27;;;4.50;;
419;SDS011;42600;54.408;13.016;2023-06-22T03:05:47;5.63;;;3.00;;
419;SDS011;42600;54.408;13.016;2023-06-22T03:08:14;14.50;;;4.00;;
419;SDS011;42600;54.408;13.016;2023-06-22T03:10:42;8.23;;;4.57;;
419;SDS011;42600;54.408;13.016;2023-06-22T03:13:08;6.50;;;3.17;;
419;SDS011;42600;54.408;13.016;2023-06-22T03:15:35;15.60;;;3.47;;
419;SDS011;42600;54.408;13.016;2023-06-22T03:18:01;7.97;;;3.67;;
419;SDS011;42600;54.408;13.016;2023-06-22T03:20:28;10.40;;;4.13;;
419;SDS011;42600;54.408;13.016;2023-06-22T03:22:58;13.97;;;3.83;;
419;SDS011;42600;54.408;13.016;2023-06-22T03:25:24;6.93;;;3.50;;
419;SDS011;42600;54.408;13.016;2023-06-22T03:27:52;6.70;;;3.77;;
419;SDS011;42600;54.408;13.016;2023-06-22T03:30:19;10.63;;;4.03;;
419;SDS011;42600;54.408;13.016;2023-06-22T03:32:45;21.73;;;4.23;;
419;SDS011;42600;54.408;13.016;2023-06-22T03:35:12;12.40;;;4.40;;
419;SDS011;42600;54.408;13.016;2023-06-22T03:37:39;4.90;;;2.93;;
419;SDS011;42600;54.408;13.016;2023-06-22T03:40:06;7.63;;;2.93;;
419;SDS011;42600;54.408;13.016;2023-06-22T03:42:33;4.50;;;1.93;;
419;SDS011;42600;54.408;13.016;2023-06-22T03:45:02;9.50;;;3.27;;
419;SDS011;42600;54.408;13.016;2023-06-22T03:47:29;11.20;;;4.63;;
419;SDS011;42600;54.408;13.016;2023-06-22T03:49:55;10.47;;;3.50;;
419;SDS011;42600;54.408;13.016;2023-06-22T03:52:22;6.23;;;2.90;;
419;SDS011;42600;54.408;13.016;2023-06-22T03:54:50;7.27;;;3.90;;
419;SDS011;42600;54.408;13.016;2023-06-22T03:57:16;6.90;;;4.07;;
419;SDS011;42600;54.408;13.016;2023-06-22T03:59:43;10.40;;;4.17;;
419;SDS011;42600;54.408;13.016;2023-06-22T04:02:11;17.57;;;4.00;;
419;SDS011;42600;54.408;13.016;2023-06-22T04:04:38;16.17;;;3.90;;
419;SDS011;42600;54.408;13.016;2023-06-22T04:07:04;3.23;;;1.80;;
419;SDS011;42600;54.408;13.016;2023-06-22T04:09:31;7.50;;;4.43;;
419;SDS011;42600;54.408;13.016;2023-06-22T04:11:58;6.83;;;2.20;;
419;SDS011;42600;54.408;13.016;2023-06-22T04:14:24;14.87;;;5.77;;
419;SDS011;42600;54.408;13.016;2023-06-22T04:16:51;20.00;;;5.03;;
419;SDS011;42600;54.408;13.016;2023-06-22T04:19:19;10.70;;;4.67;;
419;SDS011;42600;54.408;13.016;2023-06-22T04:21:45;7.93;;;5.33;;
419;SDS011;42600;54.408;13.016;2023-06-22T04:24:13;11.80;;;5.30;;
419;SDS011;42600;54.408;13.016;2023-06-22T04:26:40;9.90;;;5.37;;
419;SDS011;42600;54.408;13.016;2023-06-22T04:29:07;7.27;;;4.00;;
419;SDS011;42600;54.408;13.016;2023-06-22T04:31:34;14.90;;;6.60;;
419;SDS011;42600;54.408;13.016;2023-06-22T04:34:02;17.40;;;5.70;;
419;SDS011;42600;54.408;13.016;2023-06-22T04:36:33;6.67;;;3.23;;
419;SDS011;42600;54.408;13.016;2023-06-22T04:39:02;17.97;;;5.87;;
419;SDS011;42600;54.408;13.016;2023-06-22T04:41:34;7.77;;;3.00;;
419;SDS011;42600;54.408;13.016;2023-06-22T04:44:06;18.37;;;4.27;;
419;SDS011;42600;54.408;13.016;2023-06-22T04:46:34;8.30;;;3.70;;
419;SDS011;42600;54.408;13.016;2023-06-22T04:49:03;6.97;;;4.67;;
419;SDS011;42600;54.408;13.016;2023-06-22T04:51:36;11.13;;;3.67;;
419;SDS011;42600;54.408;13.016;2023-06-22T04:54:04;6.27;;;3.33;;
419;SDS011;42600;54.408;13.016;2023-06-22T04:56:31;5.23;;;2.80;;
419;SDS011;42600;54.408;13.016;2023-06-22T04:58:57;10.20;;;3.23;;
419;SDS011;42600;54.408;13.016;2023-06-22T05:01:24;13.40;;;4.23;;
419;SDS011;42600;54.408;13.016;2023-06-22T05:03:51;13.10;;;4.10;;
419;SDS011;42600;54.408;13.016;2023-06-22T05:06:20;11.93;;;6.10;;
419;SDS011;42600;54.408;13.016;2023-06-22T05:08:51;7.03;;;3.63;;
419;SDS011;42600;54.408;13.016;2023-06-22T05:11:22;17.83;;;6.87;;
419;SDS011;42600;54.408;13.016;2023-06-22T05:13:48;14.00;;;3.53;;
419;SDS011;42600;54.408;13.016;2023-06-22T05:16:15;13.33;;;5.50;;
419;SDS011;42600;54.408;13.016;2023-06-22T05:18:42;10.80;;;5.93;;
419;SDS011;42600;54.408;13.016;2023-06-22T05:21:09;10.13;;;4.17;;
419;SDS011;42600;54.408;13.016;2023-06-22T05:23:35;10.00;;;3.20;;
419;SDS011;42600;54.408;13.016;2023-06-22T05:26:03;14.60;;;3.53;;
419;SDS011;42600;54.408;13.016;2023-06-22T05:28:30;7.60;;;3.90;;
419;SDS011;42600;54.408;13.016;2023-06-22T05:30:56;9.27;;;4.40;;
419;SDS011;42600;54.408;13.016;2023-06-22T05:33:23;8.97;;;3.30;;
419;SDS011;42600;54.408;13.016;2023-06-22T05:35:49;6.70;;;2.83;;
419;SDS011;42600;54.408;13.016;2023-06-22T05:38:16;9.43;;;3.10;;
419;SDS011;42600;54.408;13.016;2023-06-22T05:40:42;8.60;;;2.97;;
419;SDS011;42600;54.408;13.016;2023-06-22T05:43:10;7.43;;;3.87;;
419;SDS011;42600;54.408;13.016;2023-06-22T05:45:37;10.67;;;3.03;;
419;SDS011;42600;54.408;13.016;2023-06-22T05:48:04;6.00;;;2.83;;
419;SDS011;42600;54.408;13.016;2023-06-22T05:50:31;7.60;;;3.30;;
419;SDS011;42600;54.408;13.016;2023-06-22T05:52:57;6.83;;;4.03;;
419;SDS011;42600;54.408;13.016;2023-06-22T05:55:24;10.30;;;2.43;;
419;SDS011;42600;54.408;13.016;2023-06-22T05:57:50;7.83;;;2.47;;
419;SDS011;42600;54.408;13.016;2023-06-22T06:00:19;3.47;;;1.83;;
419;SDS011;42600;54.408;13.016;2023-06-22T06:02:47;6.43;;;1.50;;
419;SDS011;42600;54.408;13.016;2023-06-22T06:05:14;3.03;;;1.70;;
419;SDS011;42600;54.408;13.016;2023-06-22T06:07:41;5.83;;;1.90;;
419;SDS011;42600;54.408;13.016;2023-06-22T06:10:08;4.83;;;1.93;;
419;SDS011;42600;54.408;13.016;2023-06-22T06:12:35;7.70;;;2.43;;
419;SDS011;42600;54.408;13.016;2023-06-22T06:15:01;4.30;;;1.90;;
419;SDS011;42600;54.408;13.016;2023-06-22T06:17:29;4.97;;;1.87;;
419;SDS011;42600;54.408;13.016;2023-06-22T06:19:56;2.77;;;1.37;;
419;SDS011;42600;54.408;13.016;2023-06-22T06:22:24;6.23;;;1.90;;
419;SDS011;42600;54.408;13.016;2023-06-22T06:24:51;5.20;;;1.80;;
419;SDS011;42600;54.408;13.016;2023-06-22T06:27:17;7.83;;;1.93;;
419;SDS011;42600;54.408;13.016;2023-06-22T06:29:44;3.83;;;1.43;;
419;SDS011;42600;54.408;13.016;2023-06-22T06:32:13;4.30;;;1.90;;
419;SDS011;42600;54.408;13.016;2023-06-22T06:34:41;5.00;;;1.60;;
419;SDS011;42600;54.408;13.016;2023-06-22T06:37:08;3.20;;;1.90;;
419;SDS011;42600;54.408;13.016;2023-06-22T06:39:34;3.40;;;1.70;;
419;SDS011;42600;54.408;13.016;2023-06-22T06:42:01;2.30;;;1.43;;
419;SDS011;42600;54.408;13.016;2023-06-22T06:44:28;3.47;;;1.87;;
419;SDS011;42600;54.408;13.016;2023-06-22T06:46:54;4.57;;;1.53;;
419;SDS011;42600;54.408;13.016;2023-06-22T06:49:21;5.73;;;1.60;;
419;SDS011;42600;54.408;13.016;2023-06-22T06:51:49;4.90;;;1.63;;
419;SDS011;42600;54.408;13.016;2023-06-22T06:54:15;7.07;;;1.97;;
419;SDS011;42600;54.408;13.016;2023-06-22T06:56:45;3.33;;;1.50;;
419;SDS011;42600;54.408;13.016;2023-06-22T06:59:13;9.20;;;2.60;;
419;SDS011;42600;54.408;13.016;2023-06-22T07:01:40;1.73;;;1.10;;
419;SDS011;42600;54.408;13.016;2023-06-22T07:04:06;5.10;;;2.10;;
419;SDS011;42600;54.408;13.016;2023-06-22T07:06:33;3.77;;;1.37;;
419;SDS011;42600;54.408;13.016;2023-06-22T07:09:01;3.47;;;1.17;;
419;SDS011;42600;54.408;13.016;2023-06-22T07:11:28;3.30;;;2.03;;
419;SDS011;42600;54.408;13.016;2023-06-22T07:13:55;3.57;;;1.57;;
419;SDS011;42600;54.408;13.016;2023-06-22T07:16:21;2.40;;;1.50;;
419;SDS011;42600;54.408;13.016;2023-06-22T07:18:50;3.10;;;1.70;;
419;SDS011;42600;54.408;13.016;2023-06-22T07:21:16;4.87;;;1.33;;
419;SDS011;42600;54.408;13.016;2023-06-22T07:23:43;4.20;;;1.50;;
419;SDS011;42600;54.408;13.016;2023-06-22T07:26:11;4.47;;;1.57;;
419;SDS011;42600;54.408;13.016;2023-06-22T07:28:38;6.20;;;1.73;;
419;SDS011;42600;54.408;13.016;2023-06-22T07:31:05;4.40;;;1.53;;
419;SDS011;42600;54.408;13.016;2023-06-22T07:33:32;6.03;;;2.20;;
419;SDS011;42600;54.408;13.016;2023-06-22T07:35:59;5.83;;;1.50;;
419;SDS011;42600;54.408;13.016;2023-06-22T07:38:25;2.97;;;2.27;;
419;SDS011;42600;54.408;13.016;2023-06-22T07:40:52;1.97;;;1.30;;
419;SDS011;42600;54.408;13.016;2023-06-22T07:43:20;3.03;;;1.37;;
419;SDS011;42600;54.408;13.016;2023-06-22T07:45:48;6.83;;;2.00;;
419;SDS011;42600;54.408;13.016;2023-06-22T07:48:17;1.80;;;1.30;;
419;SDS011;42600;54.408;13.016;2023-06-22T07:50:43;2.93;;;1.43;;
419;SDS011;42600;54.408;13.016;2023-06-22T07:53:10;12.60;;;2.17;;
419;SDS011;42600;54.408;13.016;2023-06-22T07:55:36;3.73;;;1.60;;
419;SDS011;42600;54.408;13.016;2023-06-22T07:58:03;2.53;;;1.23;;
419;SDS011;42600;54.408;13.016;2023-06-22T08:00:31;15.03;;;1.60;;
419;SDS011;42600;54.408;13.016;2023-06-22T08:02:58;5.93;;;1.40;;
419;SDS011;42600;54.408;13.016;2023-06-22T08:05:25;2.87;;;1.40;;
419;SDS011;42600;54.408;13.016;2023-06-22T08:07:52;9.63;;;1.20;;
419;SDS011;42600;54.408;13.016;2023-06-22T08:10:20;2.40;;;1.00;;
419;SDS011;42600;54.408;13.016;2023-06-22T08:12:46;4.40;;;1.73;;
419;SDS011;42600;54.408;13.016;2023-06-22T08:15:13;2.10;;;1.63;;
419;SDS011;42600;54.408;13.016;2023-06-22T08:17:41;3.13;;;2.20;;
419;SDS011;42600;54.408;13.016;2023-06-22T08:20:08;3.53;;;1.23;;
419;SDS011;42600;54.408;13.016;2023-06-22T08:22:36;2.00;;;1.13;;
419;SDS011;42600;54.408;13.016;2023-06-22T08:25:03;4.00;;;1.60;;
419;SDS011;42600;54.408;13.016;2023-06-22T08:27:31;4.30;;;1.43;;
419;SDS011;42600;54.408;13.016;2023-06-22T08:29:58;2.63;;;1.33;;
419;SDS011;42600;54.408;13.016;2023-06-22T08:32:25;1.57;;;1.00;;
419;SDS011;42600;54.408;13.016;2023-06-22T08:34:53;1.50;;;1.00;;
419;SDS011;42600;54.408;13.016;2023-06-22T08:37:20;1.50;;;1.07;;
419;SDS011;42600;54.408;13.016;2023-06-22T08:39:55;3.37;;;1.40;;
419;SDS011;42600;54.408;13.016;2023-06-22T08:42:22;3.50;;;1.40;;
419;SDS011;42600;54.408;13.016;2023-06-22T08:44:49;4.20;;;2.13;;
419;SDS011;42600;54.408;13.016;2023-06-22T08:47:16;1.67;;;0.93;;
419;SDS011;42600;54.408;13.016;2023-06-22T08:49:42;4.90;;;1.80;;
419;SDS011;42600;54.408;13.016;2023-06-22T08:52:10;2.77;;;1.40;;
419;SDS011;42600;54.408;13.016;2023-06-22T08:54:37;4.83;;;1.10;;
419;SDS011;42600;54.408;13.016;2023-06-22T08:57:03;1.43;;;0.90;;
419;SDS011;42600;54.408;13.016;2023-06-22T08:59:30;3.07;;;1.70;;
419;SDS011;42600;54.408;13.016;2023-06-22T09:01:57;1.63;;;0.90;;
419;SDS011;42600;54.408;13.016;2023-06-22T09:04:24;2.27;;;1.30;;
419;SDS011;42600;54.408;13.016;2023-06-22T09:06:50;6.20;;;1.30;;
419;SDS011;42600;54.408;13.016;2023-06-22T09:09:18;3.70;;;1.83;;
419;SDS011;42600;54.408;13.016;2023-06-22T09:11:47;1.90;;;1.03;;
419;SDS011;42600;54.408;13.016;2023-06-22T09:14:13;2.50;;;0.90;;
419;SDS011;42600;54.408;13.016;2023-06-22T09:16:40;1.33;;;0.87;;
419;SDS011;42600;54.408;13.016;2023-06-22T09:19:06;3.97;;;1.40;;
419;SDS011;42600;54.408;13.016;2023-06-22T09:21:33;2.37;;;1.20;;
419;SDS011;42600;54.408;13.016;2023-06-22T09:23:59;1.60;;;1.00;;
419;SDS011;42600;54.408;13.016;2023-06-22T09:26:27;4.70;;;1.63;;
419;SDS011;42600;54.408;13.016;2023-06-22T09:28:54;2.83;;;1.70;;
419;SDS011;42600;54.408;13.016;2023-06-22T09:31:20;1.40;;;0.80;;
419;SDS011;42600;54.408;13.016;2023-06-22T09:33:50;2.60;;;0.93;;
419;SDS011;42600;54.408;13.016;2023-06-22T09:36:17;1.50;;;0.90;;
419;SDS011;42600;54.408;13.016;2023-06-22T09:38:44;1.53;;;0.90;;
419;SDS011;42600;54.408;13.016;2023-06-22T09:41:10;2.40;;;0.93;;
419;SDS011;42600;54.408;13.016;2023-06-22T09:43:38;3.57;;;1.63;;
419;SDS011;42600;54.408;13.016;2023-06-22T09:46:05;2.70;;;1.23;;
419;SDS011;42600;54.408;13.016;2023-06-22T09:48:34;3.17;;;1.20;;
419;SDS011;42600;54.408;13.016;2023-06-22T09:51:00;1.60;;;1.10;;
419;SDS011;42600;54.408;13.016;2023-06-22T09:53:27;3.00;;;1.00;;
419;SDS011;42600;54.408;13.016;2023-06-22T09:55:54;2.47;;;1.10;;
419;SDS011;42600;54.408;13.016;2023-06-22T09:58:20;1.50;;;0.90;;
419;SDS011;42600;54.408;13.016;2023-06-22T10:00:48;3.13;;;1.40;;
419;SDS011;42600;54.408;13.016;2023-06-22T10:03:14;3.80;;;1.57;;
419;SDS011;42600;54.408;13.016;2023-06-22T10:05:41;1.80;;;1.00;;
419;SDS011;42600;54.408;13.016;2023-06-22T10:08:08;5.33;;;1.40;;
419;SDS011;42600;54.408;13.016;2023-06-22T10:10:35;2.83;;;1.60;;
419;SDS011;42600;54.408;13.016;2023-06-22T10:13:03;1.90;;;0.80;;
419;SDS011;42600;54.408;13.016;2023-06-22T10:15:34;1.83;;;1.07;;
419;SDS011;42600;54.408;13.016;2023-06-22T10:18:02;3.23;;;2.20;;
419;SDS011;42600;54.408;13.016;2023-06-22T10:20:29;4.67;;;1.77;;
419;SDS011;42600;54.408;13.016;2023-06-22T10:22:56;2.87;;;1.27;;
419;SDS011;42600;54.408;13.016;2023-06-22T10:25:22;3.17;;;1.37;;
419;SDS011;42600;54.408;13.016;2023-06-22T10:27:50;4.90;;;1.10;;
419;SDS011;42600;54.408;13.016;2023-06-22T10:30:17;1.63;;;0.80;;
419;SDS011;42600;54.408;13.016;2023-06-22T10:32:43;3.23;;;1.40;;
419;SDS011;42600;54.408;13.016;2023-06-22T10:35:11;11.83;;;1.43;;
419;SDS011;42600;54.408;13.016;2023-06-22T10:37:40;3.07;;;0.93;;
419;SDS011;42600;54.408;13.016;2023-06-22T10:40:08;1.63;;;0.80;;
419;SDS011;42600;54.408;13.016;2023-06-22T10:42:35;2.13;;;0.90;;
419;SDS011;42600;54.408;13.016;2023-06-22T10:45:02;2.80;;;1.57;;
419;SDS011;42600;54.408;13.016;2023-06-22T10:47:29;3.63;;;1.53;;
419;SDS011;42600;54.408;13.016;2023-06-22T10:49:55;7.73;;;1.80;;
419;SDS011;42600;54.408;13.016;2023-06-22T10:52:23;2.47;;;1.37;;
419;SDS011;42600;54.408;13.016;2023-06-22T10:54:50;3.57;;;1.33;;
419;SDS011;42600;54.408;13.016;2023-06-22T10:57:17;9.07;;;3.40;;
419;SDS011;42600;54.408;13.016;2023-06-22T10:59:44;2.23;;;1.30;;
419;SDS011;42600;54.408;13.016;2023-06-22T11:02:10;2.07;;;1.40;;
419;SDS011;42600;54.408;13.016;2023-06-22T11:04:37;2.80;;;1.80;;
419;SDS011;42600;54.408;13.016;2023-06-22T11:07:04;2.13;;;1.20;;
419;SDS011;42600;54.408;13.016;2023-06-22T11:09:32;6.10;;;1.10;;
419;SDS011;42600;54.408;13.016;2023-06-22T11:11:59;2.70;;;1.43;;
419;SDS011;42600;54.408;13.016;2023-06-22T11:14:26;4.57;;;1.47;;
419;SDS011;42600;54.408;13.016;2023-06-22T11:16:52;2.17;;;1.40;;
419;SDS011;42600;54.408;13.016;2023-06-22T11:19:19;3.27;;;1.40;;
419;SDS011;42600;54.408;13.016;2023-06-22T11:21:45;2.80;;;1.10;;
419;SDS011;42600;54.408;13.016;2023-06-22T11:24:12;1.90;;;0.90;;
419;SDS011;42600;54.408;13.016;2023-06-22T11:26:40;1.30;;;0.90;;
419;SDS011;42600;54.408;13.016;2023-06-22T11:29:06;3.00;;;1.30;;
419;SDS011;42600;54.408;13.016;2023-06-22T11:31:33;1.97;;;1.03;;
419;SDS011;42600;54.408;13.016;2023-06-22T11:34:00;6.13;;;1.47;;
419;SDS011;42600;54.408;13.016;2023-06-22T11:36:27;4.10;;;1.03;;
419;SDS011;42600;54.408;13.016;2023-06-22T11:38:57;4.13;;;1.70;;
419;SDS011;42600;54.408;13.016;2023-06-22T11:41:24;2.20;;;1.10;;
419;SDS011;42600;54.408;13.016;2023-06-22T11:43:52;3.37;;;1.20;;
419;SDS011;42600;54.408;13.016;2023-06-22T11:46:18;4.47;;;0.83;;
419;SDS011;42600;54.408;13.016;2023-06-22T11:48:45;1.83;;;0.90;;
419;SDS011;42600;54.408;13.016;2023-06-22T11:51:12;1.30;;;0.83;;
419;SDS011;42600;54.408;13.016;2023-06-22T11:53:38;1.37;;;0.80;;
419;SDS011;42600;54.408;13.016;2023-06-22T11:56:05;6.03;;;1.63;;
419;SDS011;42600;54.408;13.016;2023-06-22T11:58:31;1.93;;;0.90;;
419;SDS011;42600;54.408;13.016;2023-06-22T12:00:59;5.83;;;1.63;;
419;SDS011;42600;54.408;13.016;2023-06-22T12:03:26;2.50;;;1.00;;
419;SDS011;42600;54.408;13.016;2023-06-22T12:05:52;2.53;;;1.13;;
419;SDS011;42600;54.408;13.016;2023-06-22T12:08:19;2.23;;;1.40;;
419;SDS011;42600;54.408;13.016;2023-06-22T12:10:45;2.57;;;1.20;;
419;SDS011;42600;54.408;13.016;2023-06-22T12:13:12;2.50;;;0.90;;
419;SDS011;42600;54.408;13.016;2023-06-22T12:15:39;5.47;;;1.47;;
419;SDS011;42600;54.408;13.016;2023-06-22T12:18:06;3.70;;;1.00;;
419;SDS011;42600;54.408;13.016;2023-06-22T12:20:34;8.93;;;1.17;;
419;SDS011;42600;54.408;13.016;2023-06-22T12:23:01;1.83;;;0.97;;
419;SDS011;42600;54.408;13.016;2023-06-22T12:25:28;2.40;;;1.23;;
419;SDS011;42600;54.408;13.016;2023-06-22T12:27:54;2.13;;;1.10;;
419;SDS011;42600;54.408;13.016;2023-06-22T12:30:22;3.13;;;1.27;;
419;SDS011;42600;54.408;13.016;2023-06-22T12:32:49;2.07;;;0.70;;
419;SDS011;42600;54.408;13.016;2023-06-22T12:35:17;1.97;;;0.83;;
419;SDS011;42600;54.408;13.016;2023-06-22T12:37:44;3.03;;;1.10;;
419;SDS011;42600;54.408;13.016;2023-06-22T12:40:11;1.90;;;1.10;;
419;SDS011;42600;54.408;13.016;2023-06-22T12:42:37;1.77;;;0.83;;
419;SDS011;42600;54.408;13.016;2023-06-22T12:45:04;1.40;;;0.77;;
419;SDS011;42600;54.408;13.016;2023-06-22T12:47:32;2.07;;;1.00;;
419;SDS011;42600;54.408;13.016;2023-06-22T12:49:58;3.60;;;1.03;;
419;SDS011;42600;54.408;13.016;2023-06-22T12:52:26;1.60;;;0.70;;
419;SDS011;42600;54.408;13.016;2023-06-22T12:54:53;4.07;;;1.00;;
419;SDS011;42600;54.408;13.016;2023-06-22T12:57:20;11.73;;;1.57;;
419;SDS011;42600;54.408;13.016;2023-06-22T12:59:46;1.33;;;0.70;;
419;SDS011;42600;54.408;13.016;2023-06-22T13:02:13;2.40;;;1.37;;
419;SDS011;42600;54.408;13.016;2023-06-22T13:04:40;8.60;;;1.27;;
419;SDS011;42600;54.408;13.016;2023-06-22T13:07:07;1.67;;;0.90;;
419;SDS011;42600;54.408;13.016;2023-06-22T13:09:36;5.67;;;1.00;;
419;SDS011;42600;54.408;13.016;2023-06-22T13:12:03;1.47;;;0.70;;
419;SDS011;42600;54.408;13.016;2023-06-22T13:14:30;2.70;;;1.10;;
419;SDS011;42600;54.408;13.016;2023-06-22T13:16:56;1.40;;;0.80;;
419;SDS011;42600;54.408;13.016;2023-06-22T13:19:23;2.43;;;1.20;;
419;SDS011;42600;54.408;13.016;2023-06-22T13:21:49;3.10;;;0.80;;
419;SDS011;42600;54.408;13.016;2023-06-22T13:24:16;8.10;;;1.03;;
419;SDS011;42600;54.408;13.016;2023-06-22T13:26:44;7.30;;;1.50;;
419;SDS011;42600;54.408;13.016;2023-06-22T13:29:10;4.40;;;1.50;;
419;SDS011;42600;54.408;13.016;2023-06-22T13:31:37;2.87;;;0.90;;
419;SDS011;42600;54.408;13.016;2023-06-22T13:34:04;1.00;;;0.60;;
419;SDS011;42600;54.408;13.016;2023-06-22T13:36:30;1.73;;;0.67;;
419;SDS011;42600;54.408;13.016;2023-06-22T13:38:57;5.40;;;0.90;;
419;SDS011;42600;54.408;13.016;2023-06-22T13:41:23;1.73;;;0.90;;
419;SDS011;42600;54.408;13.016;2023-06-22T13:43:52;2.13;;;1.07;;
419;SDS011;42600;54.408;13.016;2023-06-22T13:46:18;4.27;;;1.20;;
419;SDS011;42600;54.408;13.016;2023-06-22T13:48:45;3.20;;;1.20;;
419;SDS011;42600;54.408;13.016;2023-06-22T13:51:11;4.10;;;1.67;;
419;SDS011;42600;54.408;13.016;2023-06-22T13:53:38;2.50;;;1.00;;
419;SDS011;42600;54.408;13.016;2023-06-22T13:56:04;3.27;;;1.43;;
419;SDS011;42600;54.408;13.016;2023-06-22T13:58:31;1.40;;;0.80;;
419;SDS011;42600;54.408;13.016;2023-06-22T14:00:59;2.33;;;0.97;;
419;SDS011;42600;54.408;13.016;2023-06-22T14:03:25;3.57;;;1.30;;
419;SDS011;42600;54.408;13.016;2023-06-22T14:05:52;1.63;;;0.90;;
419;SDS011;42600;54.408;13.016;2023-06-22T14:08:21;3.20;;;0.80;;
419;SDS011;42600;54.408;13.016;2023-06-22T14:10:48;3.40;;;1.20;;
419;SDS011;42600;54.408;13.016;2023-06-22T14:13:15;12.50;;;0.90;;
419;SDS011;42600;54.408;13.016;2023-06-22T14:15:41;3.63;;;1.33;;
419;SDS011;42600;54.408;13.016;2023-06-22T14:18:09;2.70;;;0.60;;
419;SDS011;42600;54.408;13.016;2023-06-22T14:20:36;2.77;;;1.40;;
419;SDS011;42600;54.408;13.016;2023-06-22T14:23:02;1.60;;;0.97;;
419;SDS011;42600;54.408;13.016;2023-06-22T14:25:29;2.10;;;1.37;;
419;SDS011;42600;54.408;13.016;2023-06-22T14:27:55;2.50;;;1.27;;
419;SDS011;42600;54.408;13.016;2023-06-22T14:30:22;2.57;;;0.93;;
419;SDS011;42600;54.408;13.016;2023-06-22T14:32:49;2.90;;;1.10;;
419;SDS011;42600;54.408;13.016;2023-06-22T14:35:16;2.20;;;1.17;;
419;SDS011;42600;54.408;13.016;2023-06-22T14:37:43;1.13;;;0.70;;
419;SDS011;42600;54.408;13.016;2023-06-22T14:40:10;1.63;;;1.07;;
419;SDS011;42600;54.408;13.016;2023-06-22T14:42:37;4.30;;;1.53;;
419;SDS011;42600;54.408;13.016;2023-06-22T14:45:04;3.03;;;1.27;;
419;SDS011;42600;54.408;13.016;2023-06-22T14:47:32;5.90;;;1.13;;
419;SDS011;42600;54.408;13.016;2023-06-22T14:49:58;5.03;;;2.00;;
419;SDS011;42600;54.408;13.016;2023-06-22T14:52:27;2.23;;;1.07;;
419;SDS011;42600;54.408;13.016;2023-06-22T14:54:54;2.07;;;0.90;;
419;SDS011;42600;54.408;13.016;2023-06-22T14:57:21;1.23;;;0.70;;
419;SDS011;42600;54.408;13.016;2023-06-22T14:59:48;2.33;;;1.43;;